createdAt,value
2023-05-08T00:01:11.659Z,2.30
2023-05-08T00:03:59.209Z,2.30
2023-05-08T00:06:47.785Z,2.27
2023-05-08T00:09:34.962Z,2.57
2023-05-08T00:12:23.042Z,2.67
2023-05-08T00:15:15.898Z,2.57
2023-05-08T00:18:03.085Z,2.20
2023-05-08T00:20:55.235Z,2.53
2023-05-08T00:23:43.700Z,1.90
2023-05-08T00:26:30.382Z,1.90
2023-05-08T00:29:19.902Z,1.73
2023-05-08T00:32:07.356Z,2.43
2023-05-08T00:34:54.490Z,2.33
2023-05-08T00:37:42.128Z,2.10
2023-05-08T00:40:30.713Z,1.70
2023-05-08T00:43:17.644Z,1.80
2023-05-08T00:46:08.413Z,2.23
2023-05-08T00:48:58.141Z,2.20
2023-05-08T00:51:46.301Z,1.90
2023-05-08T00:54:33.487Z,1.90
2023-05-08T00:57:22.920Z,1.97
2023-05-08T01:00:14.915Z,1.97
2023-05-08T01:03:02.448Z,1.70
2023-05-08T01:05:50.176Z,1.37
2023-05-08T01:08:40.554Z,1.83
2023-05-08T01:11:33.432Z,1.70
2023-05-08T01:14:31.590Z,1.60
2023-05-08T01:17:25.753Z,1.87
2023-05-08T01:20:24.011Z,1.77
2023-05-08T01:23:39.778Z,1.50
2023-05-08T01:27:11.728Z,1.53
2023-05-08T01:30:32.191Z,1.37
2023-05-08T01:33:26.880Z,1.60
2023-05-08T01:36:21.962Z,1.50
2023-05-08T01:39:18.667Z,1.60
2023-05-08T01:42:09.756Z,1.60
2023-05-08T01:45:01.766Z,1.50
2023-05-08T01:47:56.406Z,1.70
2023-05-08T01:50:48.788Z,1.50
2023-05-08T01:53:40.138Z,1.60
2023-05-08T01:56:29.844Z,1.50
2023-05-08T01:59:21.887Z,1.70
2023-05-08T02:02:12.123Z,1.40
2023-05-08T02:04:59.598Z,1.30
2023-05-08T02:07:50.280Z,1.50
2023-05-08T02:10:44.703Z,1.60
2023-05-08T02:13:32.685Z,1.77
2023-05-08T02:16:20.389Z,1.80
2023-05-08T02:19:09.280Z,1.50
2023-05-08T02:21:58.512Z,1.40
2023-05-08T02:24:47.770Z,1.27
2023-05-08T02:27:36.014Z,1.63
2023-05-08T02:30:25.871Z,2.23
2023-05-08T02:33:14.491Z,1.43
2023-05-08T02:36:02.986Z,1.80
2023-05-08T02:38:55.737Z,1.73
2023-05-08T02:41:46.188Z,1.70
2023-05-08T02:44:33.095Z,1.90
2023-05-08T02:47:25.044Z,1.67
2023-05-08T02:50:19.143Z,1.40
2023-05-08T02:53:13.797Z,1.60
2023-05-08T02:56:09.787Z,1.30
2023-05-08T02:59:03.559Z,1.40
2023-05-08T03:01:53.636Z,1.77
2023-05-08T03:04:47.382Z,1.30
2023-05-08T03:07:42.656Z,1.47
2023-05-08T03:10:34.294Z,1.53
2023-05-08T03:13:22.709Z,1.63
2023-05-08T03:16:16.462Z,1.60
2023-05-08T03:19:09.650Z,1.80
2023-05-08T03:21:57.895Z,1.63
2023-05-08T03:24:47.324Z,1.80
2023-05-08T03:27:37.300Z,1.67
2023-05-08T03:30:24.690Z,2.00
2023-05-08T03:33:17.680Z,1.63
2023-05-08T03:36:07.386Z,1.80
2023-05-08T03:38:54.796Z,2.40
2023-05-08T03:41:42.100Z,1.90
2023-05-08T03:44:30.976Z,1.43
2023-05-08T03:47:19.288Z,1.73
2023-05-08T03:50:10.469Z,1.73
2023-05-08T03:52:59.353Z,1.50
2023-05-08T03:55:48.010Z,1.73
2023-05-08T03:58:41.896Z,1.63
2023-05-08T04:01:40.521Z,1.60
2023-05-08T04:04:39.818Z,1.63
2023-05-08T04:07:32.942Z,1.90
2023-05-08T04:10:25.859Z,2.13
2023-05-08T04:13:18.196Z,2.30
2023-05-08T04:16:11.092Z,2.03
2023-05-08T04:19:03.325Z,2.30
2023-05-08T04:21:55.849Z,2.40
2023-05-08T04:24:49.685Z,2.60
2023-05-08T04:27:36.822Z,2.40
2023-05-08T04:30:24.387Z,2.73
2023-05-08T04:33:13.598Z,2.87
2023-05-08T04:36:03.206Z,3.00
2023-05-08T04:38:50.104Z,2.50
2023-05-08T04:41:41.606Z,3.00
2023-05-08T04:44:29.316Z,3.20
2023-05-08T04:47:16.192Z,2.77
2023-05-08T04:50:06.536Z,3.27
2023-05-08T04:52:53.677Z,3.67
2023-05-08T04:55:43.544Z,3.17
2023-05-08T04:58:31.781Z,3.03
2023-05-08T05:01:18.914Z,3.03
2023-05-08T05:04:05.790Z,2.90
2023-05-08T05:06:52.498Z,2.63
2023-05-08T05:09:39.825Z,3.13
2023-05-08T05:12:26.927Z,3.80
2023-05-08T05:15:15.219Z,3.47
2023-05-08T05:18:04.727Z,3.30
2023-05-08T05:20:51.681Z,3.10
2023-05-08T05:23:39.445Z,3.23
2023-05-08T05:26:26.052Z,2.43
2023-05-08T05:29:13.314Z,2.27
2023-05-08T05:32:01.689Z,2.67
2023-05-08T05:34:49.704Z,2.40
2023-05-08T05:37:36.515Z,2.80
2023-05-08T05:40:24.924Z,2.40
2023-05-08T05:43:12.572Z,2.27
2023-05-08T05:46:06.039Z,2.57
2023-05-08T05:48:54.538Z,2.20
2023-05-08T05:51:44.729Z,2.80
2023-05-08T05:54:32.093Z,2.23
2023-05-08T05:57:19.481Z,2.40
2023-05-08T06:00:08.130Z,2.30
2023-05-08T06:02:55.638Z,2.20
2023-05-08T06:05:44.416Z,2.20
2023-05-08T06:08:31.614Z,2.30
2023-05-08T06:11:18.443Z,2.20
2023-05-08T06:14:05.574Z,2.30
2023-05-08T06:16:53.174Z,1.80
2023-05-08T06:19:40.159Z,1.80
2023-05-08T06:22:29.393Z,1.97
2023-05-08T06:25:17.279Z,1.80
2023-05-08T06:28:06.631Z,2.00
2023-05-08T06:30:54.471Z,1.90
2023-05-08T06:33:41.404Z,1.63
2023-05-08T06:36:28.579Z,1.93
2023-05-08T06:39:17.233Z,2.23
2023-05-08T06:42:05.222Z,1.87
2023-05-08T06:44:59.078Z,2.20
2023-05-08T06:47:48.899Z,1.80
2023-05-08T06:50:35.679Z,1.70
2023-05-08T06:53:23.867Z,1.67
2023-05-08T06:56:14.465Z,1.90
2023-05-08T06:59:08.327Z,1.50
2023-05-08T07:01:56.081Z,1.60
2023-05-08T07:04:44.883Z,1.75
2023-05-08T07:07:31.609Z,1.70
2023-05-08T07:10:21.198Z,1.73
2023-05-08T07:13:09.907Z,1.73
2023-05-08T07:15:57.238Z,1.30
2023-05-08T07:18:44.408Z,1.23
2023-05-08T07:21:31.261Z,1.35
2023-05-08T07:24:19.290Z,1.80
2023-05-08T07:27:06.586Z,1.45
2023-05-08T07:29:55.260Z,1.55
2023-05-08T07:32:42.022Z,1.50
2023-05-08T07:35:29.576Z,1.42
2023-05-08T07:38:18.683Z,1.45
2023-05-08T07:41:06.194Z,1.23
2023-05-08T07:43:55.920Z,1.33
2023-05-08T07:46:44.434Z,1.58
2023-05-08T07:49:32.730Z,1.40
2023-05-08T07:52:19.503Z,1.55
2023-05-08T07:55:07.422Z,1.33
2023-05-08T07:57:54.219Z,1.33
2023-05-08T08:00:41.532Z,1.50
2023-05-08T08:03:30.329Z,1.27
2023-05-08T08:06:18.729Z,1.95
2023-05-08T08:09:05.773Z,1.67
2023-05-08T08:11:52.800Z,1.90
2023-05-08T08:14:39.942Z,1.80
2023-05-08T08:17:28.848Z,1.60
2023-05-08T08:20:17.782Z,1.92
2023-05-08T08:23:06.061Z,1.98
2023-05-08T08:25:53.682Z,2.15
2023-05-08T08:28:40.540Z,2.45
2023-05-08T08:31:27.723Z,2.00
2023-05-08T08:34:14.703Z,2.00
2023-05-08T08:37:02.739Z,1.92
2023-05-08T08:39:49.531Z,2.13
2023-05-08T08:42:36.729Z,2.03
2023-05-08T08:45:23.451Z,2.20
2023-05-08T08:48:12.707Z,1.80
2023-05-08T08:51:03.920Z,1.90
2023-05-08T08:54:02.168Z,1.88
2023-05-08T08:56:51.770Z,1.60
2023-05-08T08:59:40.047Z,1.85
2023-05-08T09:02:28.668Z,1.70
2023-05-08T09:05:15.881Z,1.80
2023-05-08T09:08:03.440Z,1.52
2023-05-08T09:10:52.638Z,1.52
2023-05-08T09:13:39.706Z,1.30
2023-05-08T09:16:29.228Z,1.40
2023-05-08T09:19:16.738Z,1.30
2023-05-08T09:22:06.917Z,1.40
2023-05-08T09:24:59.332Z,1.10
2023-05-08T09:27:47.555Z,1.17
2023-05-08T09:30:50.495Z,1.42
2023-05-08T09:33:46.336Z,1.30
2023-05-08T09:36:34.808Z,1.08
2023-05-08T09:39:25.917Z,1.30
2023-05-08T09:42:12.983Z,1.40
2023-05-08T09:45:04.539Z,1.10
2023-05-08T09:47:51.348Z,1.20
2023-05-08T09:50:38.079Z,1.33
2023-05-08T09:53:32.533Z,1.27
2023-05-08T09:56:33.914Z,1.30
2023-05-08T09:59:25.014Z,1.17
2023-05-08T10:02:16.321Z,1.20
2023-05-08T10:05:03.301Z,1.15
2023-05-08T10:07:50.524Z,1.30
2023-05-08T10:10:38.562Z,1.52
2023-05-08T10:13:26.324Z,1.60
2023-05-08T10:16:17.060Z,1.63
2023-05-08T10:19:13.237Z,1.60
2023-05-08T10:22:03.951Z,1.42
2023-05-08T10:24:54.721Z,1.50
2023-05-08T10:27:47.655Z,1.60
2023-05-08T10:30:37.633Z,1.42
2023-05-08T10:33:31.297Z,1.40
2023-05-08T10:36:20.858Z,1.40
2023-05-08T10:39:08.469Z,1.50
2023-05-08T10:41:56.097Z,2.00
2023-05-08T10:44:43.016Z,1.67
2023-05-08T10:47:34.712Z,1.90
2023-05-08T10:50:37.928Z,1.70
2023-05-08T10:53:33.233Z,2.05
2023-05-08T10:56:20.052Z,2.10
2023-05-08T10:59:07.611Z,1.90
2023-05-08T11:02:04.694Z,1.90
2023-05-08T11:04:51.835Z,2.10
2023-05-08T11:07:54.687Z,2.03
2023-05-08T11:10:44.861Z,2.10
2023-05-08T11:13:35.351Z,2.05
2023-05-08T11:16:54.931Z,1.98
2023-05-08T11:19:57.543Z,1.83
2023-05-08T11:22:49.072Z,1.95
2023-05-08T11:25:46.758Z,1.70
2023-05-08T11:28:34.643Z,1.80
2023-05-08T11:31:21.711Z,2.35
2023-05-08T11:34:51.993Z,1.83
2023-05-08T11:37:39.097Z,1.77
2023-05-08T11:40:51.015Z,1.88
2023-05-08T11:44:04.485Z,1.65
2023-05-08T11:46:53.568Z,1.67
2023-05-08T11:49:40.691Z,1.42
2023-05-08T11:52:28.158Z,1.90
2023-05-08T11:55:15.793Z,1.85
2023-05-08T11:58:12.502Z,2.00
2023-05-08T12:00:59.423Z,1.80
2023-05-08T12:03:46.737Z,1.70
2023-05-08T12:06:34.992Z,1.63
2023-05-08T12:09:23.244Z,1.75
2023-05-08T12:12:09.921Z,1.55
2023-05-08T12:14:58.247Z,1.60
2023-05-08T12:17:45.533Z,1.58
2023-05-08T12:20:33.919Z,1.52
2023-05-08T12:23:20.984Z,1.40
2023-05-08T12:26:12.710Z,1.38
2023-05-08T12:28:59.790Z,1.45
2023-05-08T12:31:49.178Z,1.42
2023-05-08T12:34:37.099Z,1.38
2023-05-08T12:37:28.963Z,1.40
2023-05-08T12:40:35.259Z,1.25
2023-05-08T12:43:22.166Z,1.52
2023-05-08T12:46:14.684Z,1.40
2023-05-08T12:49:07.948Z,1.35
2023-05-08T12:52:03.052Z,1.60
2023-05-08T12:54:50.737Z,1.45
2023-05-08T12:57:38.482Z,1.58
2023-05-08T13:00:25.474Z,1.33
2023-05-08T13:03:13.943Z,1.35
2023-05-08T13:06:02.761Z,1.20
2023-05-08T13:08:55.701Z,1.45
2023-05-08T13:11:42.637Z,1.20
2023-05-08T13:14:29.715Z,1.60
2023-05-08T13:17:18.992Z,1.60
2023-05-08T13:20:06.649Z,1.30
2023-05-08T13:22:55.415Z,1.20
2023-05-08T13:25:42.514Z,1.33
2023-05-08T13:28:29.394Z,1.20
2023-05-08T13:31:16.500Z,0.90
2023-05-08T13:34:03.485Z,1.70
2023-05-08T13:36:51.243Z,1.20
2023-05-08T13:39:39.616Z,1.30
2023-05-08T13:42:26.538Z,1.17
2023-05-08T13:45:14.860Z,1.20
2023-05-08T13:48:01.855Z,1.33
2023-05-08T13:50:48.598Z,1.20
2023-05-08T13:53:35.799Z,1.60
2023-05-08T13:56:24.757Z,1.60
2023-05-08T13:59:12.399Z,1.35
2023-05-08T14:01:59.308Z,1.40
2023-05-08T14:04:46.308Z,1.30
2023-05-08T14:07:33.066Z,1.20
2023-05-08T14:10:20.440Z,1.10
2023-05-08T14:13:09.051Z,1.10
2023-05-08T14:15:55.883Z,1.35
2023-05-08T14:18:42.905Z,0.80
2023-05-08T14:21:31.003Z,1.38
2023-05-08T14:24:17.773Z,0.85
2023-05-08T14:27:06.273Z,0.82
2023-05-08T14:29:55.786Z,0.80
2023-05-08T14:32:42.941Z,0.90
2023-05-08T14:35:30.425Z,0.93
2023-05-08T14:38:17.470Z,0.80
2023-05-08T14:41:04.881Z,0.95
2023-05-08T14:43:52.147Z,0.77
2023-05-08T14:46:40.808Z,0.90
2023-05-08T14:49:37.448Z,0.70
2023-05-08T14:52:25.671Z,0.98
2023-05-08T14:55:13.606Z,0.80
2023-05-08T14:58:01.649Z,0.80
2023-05-08T15:00:48.633Z,0.70
2023-05-08T15:03:38.779Z,1.08
2023-05-08T15:06:27.362Z,1.10
2023-05-08T15:09:16.303Z,1.10
2023-05-08T15:12:03.423Z,0.85
2023-05-08T15:14:50.402Z,0.93
2023-05-08T15:17:37.291Z,0.80
2023-05-08T15:20:25.785Z,0.95
2023-05-08T15:23:12.487Z,0.70
2023-05-08T15:25:59.860Z,0.70
2023-05-08T15:28:46.943Z,0.75
2023-05-08T15:31:33.764Z,1.10
2023-05-08T15:34:20.970Z,0.88
2023-05-08T15:37:09.195Z,0.63
2023-05-08T15:39:56.101Z,0.90
2023-05-08T15:42:43.592Z,1.00
2023-05-08T15:45:30.631Z,0.70
2023-05-08T15:48:17.949Z,0.90
2023-05-08T15:51:06.475Z,1.00
2023-05-08T15:53:57.078Z,1.15
2023-05-08T15:56:43.732Z,0.87
2023-05-08T15:59:30.614Z,0.80
2023-05-08T16:02:18.355Z,1.00
2023-05-08T16:05:05.718Z,1.10
2023-05-08T16:07:53.933Z,1.00
2023-05-08T16:10:43.130Z,1.20
2023-05-08T16:13:30.791Z,1.00
2023-05-08T16:16:17.973Z,1.10
2023-05-08T16:19:04.800Z,1.00
2023-05-08T16:21:51.526Z,1.08
2023-05-08T16:24:38.383Z,1.00
2023-05-08T16:27:26.580Z,1.10
2023-05-08T16:30:14.072Z,1.08
2023-05-08T16:33:01.252Z,1.20
2023-05-08T16:35:50.281Z,1.25
2023-05-08T16:38:37.449Z,1.00
2023-05-08T16:41:24.421Z,1.30
2023-05-08T16:44:13.208Z,1.70
2023-05-08T16:47:00.090Z,1.23
2023-05-08T16:49:46.897Z,1.40
2023-05-08T16:52:33.981Z,1.63
2023-05-08T16:55:20.996Z,1.73
2023-05-08T16:58:07.968Z,1.67
2023-05-08T17:00:56.238Z,1.83
2023-05-08T17:03:43.392Z,1.50
2023-05-08T17:06:30.220Z,1.57
2023-05-08T17:09:19.632Z,1.63
2023-05-08T17:12:07.864Z,1.90
2023-05-08T17:14:54.862Z,1.83
2023-05-08T17:17:43.752Z,1.83
2023-05-08T17:20:30.878Z,1.90
2023-05-08T17:23:18.248Z,1.70
2023-05-08T17:26:05.900Z,1.83
2023-05-08T17:28:53.127Z,1.83
2023-05-08T17:31:40.430Z,1.70
2023-05-08T17:34:29.424Z,2.13
2023-05-08T17:37:16.303Z,2.30
2023-05-08T17:40:03.241Z,2.67
2023-05-08T17:42:50.026Z,2.40
2023-05-08T17:45:39.151Z,1.60
2023-05-08T17:48:26.451Z,2.10
2023-05-08T17:51:15.597Z,1.97
2023-05-08T17:54:05.410Z,2.10
2023-05-08T17:56:53.178Z,2.23
2023-05-08T17:59:41.429Z,1.90
2023-05-08T18:02:28.665Z,2.10
2023-05-08T18:05:15.745Z,2.07
2023-05-08T18:08:04.294Z,1.83
2023-05-08T18:10:51.506Z,2.37
2023-05-08T18:13:38.822Z,2.40
2023-05-08T18:16:25.940Z,2.37
2023-05-08T18:19:13.211Z,2.30
2023-05-08T18:22:00.003Z,2.40
2023-05-08T18:24:50.134Z,2.67
2023-05-08T18:27:37.037Z,2.27
2023-05-08T18:30:26.017Z,2.43
2023-05-08T18:33:13.160Z,2.40
2023-05-08T18:36:00.162Z,2.07
2023-05-08T18:38:48.630Z,2.30
2023-05-08T18:41:37.470Z,2.27
2023-05-08T18:44:24.520Z,2.50
2023-05-08T18:47:11.413Z,2.50
2023-05-08T18:49:59.965Z,2.70
2023-05-08T18:52:46.818Z,2.87
2023-05-08T18:55:33.954Z,2.47
2023-05-08T18:58:22.244Z,2.27
2023-05-08T19:01:09.369Z,2.10
2023-05-08T19:03:59.895Z,2.03
2023-05-08T19:06:47.794Z,2.10
2023-05-08T19:09:35.118Z,1.60
2023-05-08T19:12:22.325Z,1.50
2023-05-08T19:15:14.184Z,1.80
2023-05-08T19:18:02.916Z,1.97
2023-05-08T19:20:52.483Z,1.83
2023-05-08T19:23:39.960Z,1.73
2023-05-08T19:26:27.852Z,1.90
2023-05-08T19:29:15.204Z,1.90
2023-05-08T19:32:03.850Z,1.80
2023-05-08T19:34:51.502Z,1.70
2023-05-08T19:37:40.404Z,1.27
2023-05-08T19:40:27.325Z,1.50
2023-05-08T19:43:14.277Z,1.70
2023-05-08T19:46:02.541Z,1.70
2023-05-08T19:48:50.685Z,1.60
2023-05-08T19:51:37.755Z,1.70
2023-05-08T19:54:24.875Z,2.43
2023-05-08T19:57:12.266Z,1.63
2023-05-08T20:00:00.142Z,1.70
2023-05-08T20:02:47.532Z,1.80
2023-05-08T20:05:36.549Z,1.57
2023-05-08T20:08:23.464Z,1.53
2023-05-08T20:11:11.902Z,1.80
2023-05-08T20:13:58.918Z,2.03
2023-05-08T20:16:46.350Z,1.60
2023-05-08T20:19:33.884Z,2.03
2023-05-08T20:22:22.103Z,1.87
2023-05-08T20:25:09.498Z,1.50
2023-05-08T20:27:58.167Z,2.93
2023-05-08T20:30:45.296Z,1.93
2023-05-08T20:33:32.360Z,1.93
2023-05-08T20:36:19.393Z,1.50
2023-05-08T20:39:08.082Z,1.70
2023-05-08T20:41:55.216Z,1.67
2023-05-08T20:44:42.040Z,1.80
2023-05-08T20:47:31.286Z,1.60
2023-05-08T20:50:18.265Z,1.60
2023-05-08T20:53:05.691Z,2.10
2023-05-08T20:56:01.253Z,1.97
2023-05-08T20:58:48.074Z,1.93
2023-05-08T21:01:48.742Z,2.97
2023-05-08T21:04:35.907Z,2.80
2023-05-08T21:07:22.819Z,2.63
2023-05-08T21:10:10.870Z,1.63
2023-05-08T21:12:59.456Z,1.40
2023-05-08T21:15:49.326Z,1.80
2023-05-08T21:18:37.469Z,2.30
2023-05-08T21:21:24.437Z,1.47
2023-05-08T21:24:11.562Z,2.37
2023-05-08T21:26:59.748Z,2.10
2023-05-08T21:29:48.247Z,2.70
2023-05-08T21:32:38.179Z,3.10
2023-05-08T21:35:24.978Z,2.80
2023-05-08T21:38:13.085Z,2.63
2023-05-08T21:41:06.854Z,2.50
2023-05-08T21:43:53.627Z,2.40
2023-05-08T21:46:43.143Z,2.20
2023-05-08T21:49:30.565Z,1.90
2023-05-08T21:52:22.289Z,2.10
2023-05-08T21:55:10.409Z,2.20
2023-05-08T21:57:59.894Z,2.07
2023-05-08T22:00:49.952Z,6.37
2023-05-08T22:03:38.358Z,4.53
2023-05-08T22:06:25.486Z,2.90
2023-05-08T22:09:12.480Z,2.63
2023-05-08T22:11:59.351Z,2.23
2023-05-08T22:14:46.006Z,2.53
2023-05-08T22:17:33.463Z,2.10
2023-05-08T22:20:21.671Z,2.07
2023-05-08T22:23:08.826Z,1.87
2023-05-08T22:25:55.832Z,2.57
2023-05-08T22:28:42.782Z,2.63
2023-05-08T22:31:30.008Z,2.07
2023-05-08T22:34:17.172Z,1.80
2023-05-08T22:37:05.781Z,2.40
2023-05-08T22:39:52.775Z,2.17
2023-05-08T22:42:40.933Z,2.17
2023-05-08T22:45:28.058Z,2.87
2023-05-08T22:48:15.041Z,4.00
2023-05-08T22:51:02.020Z,2.47
2023-05-08T22:53:53.469Z,2.00
2023-05-08T22:56:40.181Z,2.87
2023-05-08T22:59:29.241Z,2.30
2023-05-08T23:02:15.932Z,2.60
2023-05-08T23:05:03.912Z,3.40
2023-05-08T23:07:50.806Z,1.87
2023-05-08T23:10:42.928Z,2.20
2023-05-08T23:13:30.036Z,1.70
2023-05-08T23:16:22.891Z,2.10
2023-05-08T23:19:17.460Z,2.47
2023-05-08T23:22:04.598Z,2.07
2023-05-08T23:24:53.793Z,2.47
2023-05-08T23:27:42.262Z,3.10
2023-05-08T23:30:29.291Z,2.20
2023-05-08T23:33:16.662Z,3.80
2023-05-08T23:36:06.176Z,3.20
2023-05-08T23:38:53.376Z,3.90
2023-05-08T23:41:40.335Z,3.20
2023-05-08T23:44:28.853Z,3.17
2023-05-08T23:47:15.918Z,2.97
2023-05-08T23:50:05.597Z,4.37
2023-05-08T23:52:53.492Z,3.97
2023-05-08T23:55:40.307Z,3.43
2023-05-08T23:58:27.624Z,4.27
